logo
Rechercher aéroport 
image banner adimage banner adimage banner ad
image banner ad

SNHE - Fazenda Canuana

Situé à Formoso Do Araguaia, Brazil

ICAO - SNHE, IATA -

Données fournies par Airmate  

Information générale

Coordonnées: S11°58'39" W49°54'29"
Élévation : 787 feet MSL.
Variation magnétique : -21.10812853° East
Voir autres Aéroports à Tocatins

Données opérationnelles

Special qualification required
Heure actuelle UTC:
Heure actuelle locale:
Météo à : - ( 0 km )
METAR: KDVP 240713Z AUTO 15003KT 5SM +VCTSRA SCT042 BKN050 OVC060 16/11 A2962 RMK AO2 LTG DSNT ALQS P0003 T01630109
Voir NOTAMs / SUP AIP / TFR affectant cet aéroport [VIEW]
Fréquences de communication: [VIEW]

Pistes:

Identifiant RWYQFULongueur (ft)Largeur (ft)SurfaceLDA (ft)
08358992EARTH
26358992EARTH

Coordonnées de l'aéroport

Adresse: Formoso Do Araguaia Brazil

Vue satellite de SNHE